Time;durP1;ratioP1;P1;durP2;ratioP2;P2;SDS_P1;SDS_P2;PMS_P1;PMS_P2;Temp;Humidity;BMP_temperature;BMP_pressure;BME280_temperature;BME280_humidity;BME280_pressure;Samples;Min_cycle;Max_cycle;Signal;HPM_P1;HPM_P2
2023/06/26 00:03:53;;;;;;;9.07;8.27;;;23.30;65.60;;;;;;10466753;28;20223;-84
2023/06/26 00:08:58;;;;;;;9.57;8.77;;;23.30;66.00;;;;;;10465978;28;20263;-81
2023/06/26 00:14:01;;;;;;;6.50;5.90;;;23.20;65.60;;;;;;10466635;28;20236;-84
2023/06/26 00:19:03;;;;;;;9.10;8.30;;;23.20;65.60;;;;;;10467204;28;20519;-84
2023/06/26 00:24:06;;;;;;;14.53;8.43;;;23.20;66.10;;;;;;10465696;28;20622;-83
2023/06/26 00:29:08;;;;;;;8.83;8.03;;;23.10;65.70;;;;;;10429693;28;20316;-83
2023/06/26 00:34:11;;;;;;;9.97;9.07;;;23.00;66.90;;;;;;10472153;28;20195;-82
2023/06/26 00:39:14;;;;;;;9.07;8.27;;;23.00;65.80;;;;;;10454617;28;20214;-84
2023/06/26 00:44:17;;;;;;;8.23;7.53;;;23.00;65.20;;;;;;10455869;28;20229;-83
2023/06/26 00:49:20;;;;;;;10.53;9.60;;;22.90;66.10;;;;;;10439604;28;20221;-84
2023/06/26 00:54:23;;;;;;;9.30;8.50;;;22.80;66.90;;;;;;10475593;28;20216;-83
2023/06/26 00:59:25;;;;;;;8.83;8.13;;;22.80;66.90;;;;;;10454607;28;20225;-81
2023/06/26 01:04:32;;;;;;;9.80;8.90;;;22.70;66.00;;;;;;10452800;28;20311;-83
2023/06/26 01:09:36;;;;;;;8.50;7.80;;;22.70;67.40;;;;;;10461406;28;20220;-83
2023/06/26 01:14:38;;;;;;;9.03;8.23;;;22.70;66.20;;;;;;10470368;28;20218;-83
2023/06/26 01:19:41;;;;;;;8.90;8.10;;;22.60;66.40;;;;;;10487962;28;20209;-83
2023/06/26 01:24:54;;;;;;;8.80;8.00;;;22.60;66.20;;;;;;10471421;28;20224;-81
2023/06/26 01:29:59;;;;;;;9.13;8.33;;;22.60;67.30;;;;;;10460934;28;20275;-84
2023/06/26 01:35:02;;;;;;;9.10;8.30;;;22.60;68.00;;;;;;10474812;28;20218;-84
2023/06/26 01:40:06;;;;;;;8.67;7.97;;;22.60;68.20;;;;;;10476131;28;20643;-85
2023/06/26 01:45:18;;;;;;;9.40;8.50;;;22.60;67.20;;;;;;10453112;28;20341;-83
2023/06/26 01:50:27;;;;;;;9.10;8.30;;;22.60;67.00;;;;;;10454406;28;20225;-82
2023/06/26 01:55:35;;;;;;;9.00;8.20;;;22.50;67.80;;;;;;10471187;28;20221;-84
2023/06/26 02:00:39;;;;;;;8.33;7.63;;;22.50;67.80;;;;;;10455074;28;20268;-81
2023/06/26 02:05:41;;;;;;;8.33;7.43;;;22.50;68.90;;;;;;10472607;28;20607;-84
2023/06/26 02:10:43;;;;;;;8.10;7.30;;;22.40;69.10;;;;;;10453809;28;20223;-84
2023/06/26 02:15:47;;;;;;;9.70;8.80;;;22.40;69.20;;;;;;10452385;28;20601;-81
2023/06/26 02:20:49;;;;;;;9.03;8.33;;;22.40;69.00;;;;;;10474101;28;20260;-83
2023/06/26 02:25:52;;;;;;;9.10;8.30;;;22.30;68.30;;;;;;10483193;28;20244;-83
2023/06/26 02:30:55;;;;;;;9.13;8.40;;;22.30;68.40;;;;;;10464021;28;20198;-84
2023/06/26 02:35:57;;;;;;;9.30;8.50;;;22.20;69.40;;;;;;10444885;28;20225;-83
2023/06/26 02:40:59;;;;;;;9.40;8.50;;;22.20;69.80;;;;;;10431419;28;20202;-83
2023/06/26 02:46:03;;;;;;;10.67;9.67;;;22.20;69.90;;;;;;10448526;28;20300;-84
2023/06/26 02:51:06;;;;;;;8.93;8.13;;;22.10;70.30;;;;;;10428558;28;20628;-84
2023/06/26 02:56:09;;;;;;;8.83;8.03;;;22.10;70.10;;;;;;10448623;28;20248;-82
2023/06/26 03:01:13;;;;;;;9.97;9.07;;;22.10;70.30;;;;;;10431427;28;20209;-83
2023/06/26 03:06:17;;;;;;;9.07;8.23;;;22.00;70.00;;;;;;10447106;28;20719;-83
2023/06/26 03:11:20;;;;;;;9.30;8.50;;;22.00;70.50;;;;;;10443711;28;20248;-83
2023/06/26 03:16:24;;;;;;;8.73;8.00;;;22.00;70.90;;;;;;10453266;28;20293;-84
2023/06/26 03:21:26;;;;;;;9.93;9.03;;;22.00;71.50;;;;;;10452420;28;20208;-83
2023/06/26 03:26:29;;;;;;;12.27;9.57;;;22.00;71.40;;;;;;10448028;28;20220;-84
2023/06/26 03:31:35;;;;;;;9.83;8.93;;;22.00;70.80;;;;;;10447979;28;20643;-83
2023/06/26 03:36:38;;;;;;;9.70;8.80;;;22.00;71.20;;;;;;10448235;28;20222;-83
2023/06/26 03:41:40;;;;;;;9.57;8.67;;;22.00;70.90;;;;;;10453190;28;20194;-83
2023/06/26 03:46:44;;;;;;;9.30;8.50;;;22.00;69.90;;;;;;10445513;28;20563;-84
2023/06/26 03:51:46;;;;;;;9.70;8.83;;;22.00;71.40;;;;;;10438486;28;20653;-83
2023/06/26 03:56:49;;;;;;;8.20;7.50;;;22.00;72.00;;;;;;10425441;28;20222;-82
2023/06/26 04:01:53;;;;;;;8.57;7.87;;;22.00;72.30;;;;;;10445625;28;20262;-83
2023/06/26 04:06:55;;;;;;;9.27;8.57;;;22.00;71.60;;;;;;10450301;28;20221;-80
2023/06/26 04:11:57;;;;;;;8.27;7.57;;;22.00;72.20;;;;;;10444626;28;20292;-82
2023/06/26 04:17:02;;;;;;;8.90;8.10;;;22.00;72.50;;;;;;10445679;28;20229;-83
2023/06/26 04:22:05;;;;;;;8.83;8.13;;;22.00;72.70;;;;;;10446723;28;20563;-82
2023/06/26 04:27:07;;;;;;;8.67;7.90;;;22.10;73.10;;;;;;10464459;28;20572;-83
2023/06/26 04:32:10;;;;;;;8.77;8.07;;;22.00;73.30;;;;;;10443831;28;20198;-83
2023/06/26 04:37:16;;;;;;;9.60;8.80;;;22.10;73.20;;;;;;10459894;28;20221;-83
2023/06/26 04:42:21;;;;;;;8.10;7.40;;;22.10;73.40;;;;;;10462955;28;20198;-82
2023/06/26 04:47:25;;;;;;;9.23;8.33;;;22.10;74.20;;;;;;10480071;23;20241;-81
2023/06/26 04:52:27;;;;;;;8.90;8.10;;;22.10;73.70;;;;;;10463190;28;20289;-78
2023/06/26 04:57:29;;;;;;;9.37;8.00;;;22.10;73.70;;;;;;10458713;28;20221;-78
2023/06/26 05:02:32;;;;;;;10.23;9.27;;;22.20;73.80;;;;;;10447023;28;20269;-78
2023/06/26 05:07:35;;;;;;;8.30;7.47;;;22.20;73.00;;;;;;10422291;28;20290;-79
2023/06/26 05:12:37;;;;;;;8.53;7.83;;;22.30;73.20;;;;;;10445084;28;20220;-79
2023/06/26 05:17:40;;;;;;;7.80;7.10;;;22.30;73.90;;;;;;10435182;28;20348;-79
2023/06/26 05:22:42;;;;;;;7.30;6.70;;;22.40;73.50;;;;;;10429671;28;20225;-78
2023/06/26 05:27:45;;;;;;;8.63;7.60;;;22.40;74.10;;;;;;10429547;28;20265;-78
2023/06/26 05:32:50;;;;;;;7.57;6.87;;;22.50;74.10;;;;;;10449550;28;20937;-79
2023/06/26 05:37:52;;;;;;;7.87;7.20;;;22.60;74.00;;;;;;10436282;28;20234;-79
2023/06/26 05:42:55;;;;;;;8.97;8.17;;;22.70;75.00;;;;;;10452322;28;20210;-80
2023/06/26 05:47:59;;;;;;;8.60;7.90;;;22.70;74.10;;;;;;10437135;28;20218;-79
2023/06/26 05:53:03;;;;;;;8.37;7.57;;;22.80;73.50;;;;;;10427548;28;20626;-78
2023/06/26 05:58:05;;;;;;;9.70;7.50;;;22.90;72.90;;;;;;10434105;28;20228;-79
2023/06/26 06:03:10;;;;;;;9.57;7.53;;;23.00;73.00;;;;;;10434293;28;20292;-78
2023/06/26 06:08:13;;;;;;;8.83;7.00;;;23.00;72.60;;;;;;10448313;28;20211;-79
2023/06/26 06:13:15;;;;;;;9.00;8.20;;;23.10;72.30;;;;;;10446694;28;20505;-79
2023/06/26 06:18:18;;;;;;;8.43;7.63;;;23.20;71.50;;;;;;10434835;28;20263;-79
2023/06/26 06:23:20;;;;;;;8.93;7.73;;;23.40;71.80;;;;;;10465756;28;20206;-78
2023/06/26 06:28:22;;;;;;;6.57;6.07;;;23.40;72.30;;;;;;10482558;28;20220;-79
2023/06/26 06:33:26;;;;;;;8.43;7.53;;;23.60;74.20;;;;;;10464198;28;20195;-77
2023/06/26 06:38:28;;;;;;;7.90;7.20;;;23.70;73.90;;;;;;10478349;28;20206;-79
2023/06/26 06:43:30;;;;;;;14.87;9.13;;;23.90;75.70;;;;;;10479494;28;20194;-78
2023/06/26 06:48:33;;;;;;;9.37;8.47;;;24.10;74.10;;;;;;10461214;28;20202;-78
2023/06/26 06:53:35;;;;;;;10.37;8.97;;;24.50;75.20;;;;;;10468605;28;20194;-80
2023/06/26 06:58:37;;;;;;;9.03;8.00;;;24.80;74.40;;;;;;10448922;28;20214;-78
2023/06/26 07:03:41;;;;;;;8.93;7.97;;;25.20;73.80;;;;;;10449695;28;20194;-80
2023/06/26 07:08:43;;;;;;;8.90;8.10;;;25.50;71.70;;;;;;10429922;28;20221;-80
2023/06/26 07:13:45;;;;;;;8.30;7.60;;;25.80;70.20;;;;;;10446303;28;20201;-80
2023/06/26 07:18:49;;;;;;;7.63;6.93;;;26.10;69.00;;;;;;10448619;28;20218;-79
2023/06/26 07:23:51;;;;;;;7.53;6.80;;;26.60;68.50;;;;;;10449128;28;20291;-80
2023/06/26 07:28:56;;;;;;;8.10;7.40;;;27.10;67.90;;;;;;10440576;28;20226;-80
2023/06/26 07:34:00;;;;;;;7.40;6.70;;;27.70;66.70;;;;;;10448256;28;20264;-80
2023/06/26 07:39:02;;;;;;;6.80;6.30;;;28.30;62.60;;;;;;10443669;28;20221;-80
2023/06/26 07:44:04;;;;;;;8.00;7.30;;;28.90;63.30;;;;;;10423303;28;20232;-81
2023/06/26 07:49:08;;;;;;;8.27;7.20;;;29.50;59.90;;;;;;10443166;28;20211;-80
2023/06/26 07:54:10;;;;;;;7.53;6.90;;;30.00;58.10;;;;;;10437540;28;20195;-78
2023/06/26 07:59:14;;;;;;;7.00;6.37;;;30.50;58.50;;;;;;10439936;28;20302;-80
2023/06/26 08:04:19;;;;;;;7.67;6.97;;;31.00;58.00;;;;;;10443403;28;20199;-79
2023/06/26 08:09:22;;;;;;;7.53;6.60;;;31.50;57.40;;;;;;10422413;28;20625;-80
2023/06/26 08:14:24;;;;;;;6.83;6.23;;;32.00;55.90;;;;;;10441461;28;20209;-79
2023/06/26 08:19:27;;;;;;;6.40;5.87;;;32.40;55.00;;;;;;10439477;28;20225;-80
2023/06/26 08:24:30;;;;;;;7.13;6.57;;;32.80;54.40;;;;;;10446630;28;20205;-79
2023/06/26 08:29:32;;;;;;;8.03;6.70;;;33.10;53.40;;;;;;10437954;28;20217;-81
2023/06/26 08:34:35;;;;;;;6.30;5.80;;;33.50;52.70;;;;;;10437014;28;20617;-79
2023/06/26 08:39:37;;;;;;;6.93;5.80;;;33.80;51.90;;;;;;10419748;28;20635;-79
2023/06/26 08:44:39;;;;;;;6.63;6.03;;;34.00;50.40;;;;;;10436592;28;20213;-81
2023/06/26 08:49:52;;;;;;;5.83;5.30;;;34.30;51.60;;;;;;10436446;28;20247;-80
2023/06/26 08:54:58;;;;;;;5.80;5.33;;;34.50;50.80;;;;;;10432397;28;20308;-81
2023/06/26 09:00:01;;;;;;;5.40;4.90;;;34.60;50.20;;;;;;10429688;28;20276;-80
2023/06/26 09:05:07;;;;;;;6.93;5.77;;;34.80;49.70;;;;;;10431452;28;20210;-81
2023/06/26 09:10:09;;;;;;;5.40;5.00;;;35.10;49.50;;;;;;10430589;28;20245;-81
2023/06/26 09:15:16;;;;;;;5.80;5.40;;;35.30;48.40;;;;;;10441652;28;20672;-81
2023/06/26 09:20:23;;;;;;;5.80;5.40;;;35.50;47.80;;;;;;10447577;28;20216;-80
2023/06/26 09:25:25;;;;;;;5.07;4.77;;;35.70;48.00;;;;;;10428734;28;20197;-81
2023/06/26 09:30:27;;;;;;;7.07;5.40;;;35.60;47.00;;;;;;10447596;28;20221;-81
2023/06/26 09:35:31;;;;;;;6.83;4.93;;;35.10;47.80;;;;;;10448439;28;20194;-79
2023/06/26 09:40:34;;;;;;;5.10;4.70;;;34.80;48.40;;;;;;10442411;28;20221;-80
2023/06/26 09:45:39;;;;;;;5.57;5.17;;;34.50;48.80;;;;;;10433225;28;20209;-79
2023/06/26 09:50:43;;;;;;;6.17;5.67;;;34.20;50.10;;;;;;10443555;28;20241;-80
2023/06/26 09:55:46;;;;;;;5.63;5.23;;;34.00;50.40;;;;;;10429204;28;20607;-79
2023/06/26 10:00:49;;;;;;;5.50;5.10;;;33.60;48.70;;;;;;10430916;28;20224;-80
2023/06/26 10:05:53;;;;;;;6.00;5.60;;;34.50;49.60;;;;;;10448957;28;20198;-78
2023/06/26 10:10:56;;;;;;;5.60;5.20;;;35.00;49.00;;;;;;10439786;28;20626;-79
2023/06/26 10:16:00;;;;;;;6.00;5.60;;;35.00;48.50;;;;;;10426193;28;20247;-80
2023/06/26 10:21:04;;;;;;;5.50;5.10;;;34.90;48.00;;;;;;10443475;28;20224;-80
2023/06/26 10:26:08;;;;;;;6.43;5.97;;;34.60;49.50;;;;;;10444751;28;20205;-78
2023/06/26 10:31:10;;;;;;;6.00;5.50;;;34.10;49.60;;;;;;10443147;28;20278;-79
2023/06/26 10:36:19;;;;;;;7.27;6.67;;;33.60;50.40;;;;;;10440928;28;20202;-79
2023/06/26 10:41:23;;;;;;;7.40;5.73;;;33.00;51.50;;;;;;10446560;28;20198;-78
2023/06/26 10:46:25;;;;;;;9.43;7.30;;;32.50;52.50;;;;;;10440688;28;20206;-79
2023/06/26 10:51:29;;;;;;;5.90;5.50;;;32.10;53.30;;;;;;10449342;22;20241;-84
2023/06/26 10:56:44;;;;;;;6.87;6.37;;;31.70;53.30;;;;;;10440024;28;20220;-85
2023/06/26 11:01:47;;;;;;;5.97;5.57;;;31.30;52.90;;;;;;10419990;28;20210;-84
2023/06/26 11:07:18;;;;;;;8.00;7.17;;;31.10;54.90;;;;;;10438130;28;20187;-83
2023/06/26 11:12:36;;;;;;;6.87;6.37;;;30.90;54.70;;;;;;10432099;28;20232;-82
2023/06/26 11:17:39;;;;;;;7.87;7.17;;;30.80;55.20;;;;;;10431506;28;20309;-83
2023/06/26 11:22:43;;;;;;;8.60;7.83;;;30.60;55.30;;;;;;10437083;28;20191;-84
2023/06/26 11:27:46;;;;;;;7.97;7.27;;;30.70;54.90;;;;;;10442911;28;20210;-84
2023/06/26 11:32:48;;;;;;;7.37;6.77;;;30.80;55.10;;;;;;10421056;28;20190;-84
2023/06/26 11:37:56;;;;;;;6.23;5.73;;;30.90;54.90;;;;;;10436880;28;20225;-83
2023/06/26 11:42:59;;;;;;;6.90;6.40;;;30.80;55.10;;;;;;10439847;28;20222;-84
2023/06/26 11:48:02;;;;;;;8.47;7.77;;;30.70;55.60;;;;;;10440395;28;20245;-83
2023/06/26 11:53:07;;;;;;;8.30;7.50;;;30.60;55.70;;;;;;10456002;28;20192;-82
2023/06/26 11:58:09;;;;;;;7.10;6.60;;;30.50;55.60;;;;;;10475265;28;20213;-81
2023/06/26 12:03:11;;;;;;;7.40;6.80;;;30.30;56.00;;;;;;10475785;28;20206;-83
2023/06/26 12:08:15;;;;;;;7.93;7.13;;;30.30;56.40;;;;;;10468007;28;20210;-82
2023/06/26 12:13:18;;;;;;;7.90;7.20;;;30.10;57.10;;;;;;10457358;28;20244;-83
2023/06/26 12:18:20;;;;;;;7.17;6.47;;;30.10;58.90;;;;;;10475067;28;20312;-82
2023/06/26 12:23:24;;;;;;;7.30;6.80;;;30.20;59.30;;;;;;10478627;28;20227;-82
2023/06/26 12:28:26;;;;;;;6.80;6.20;;;30.30;59.60;;;;;;10450666;28;20741;-84
2023/06/26 12:33:28;;;;;;;7.37;6.67;;;30.20;59.70;;;;;;10465923;28;20585;-82
2023/06/26 12:38:36;;;;;;;7.77;7.17;;;30.10;59.70;;;;;;10486470;28;20274;-83
2023/06/26 12:43:39;;;;;;;7.20;6.60;;;30.10;59.90;;;;;;10467322;28;20204;-84
2023/06/26 12:48:46;;;;;;;7.30;6.60;;;30.00;60.20;;;;;;10484378;28;20218;-84
2023/06/26 12:53:49;;;;;;;7.30;6.37;;;30.00;60.00;;;;;;10485686;28;20213;-83
2023/06/26 12:58:51;;;;;;;6.60;6.10;;;29.90;59.50;;;;;;10464981;28;20213;-82
2023/06/26 13:03:53;;;;;;;6.93;6.33;;;29.80;60.30;;;;;;10446861;28;20194;-83
2023/06/26 13:08:59;;;;;;;6.93;6.33;;;29.70;60.50;;;;;;10490563;28;20772;-81
2023/06/26 13:14:01;;;;;;;6.50;5.90;;;29.60;60.70;;;;;;10473518;28;20221;-83
2023/06/26 13:19:03;;;;;;;9.90;6.60;;;29.60;60.30;;;;;;10483071;28;20218;-84
2023/06/26 13:24:07;;;;;;;7.30;6.70;;;29.70;59.60;;;;;;10482302;28;20194;-82
2023/06/26 13:29:09;;;;;;;7.67;6.93;;;29.70;59.80;;;;;;10447837;28;20217;-83
2023/06/26 13:34:21;;;;;;;6.97;6.00;;;29.60;60.10;;;;;;10482020;28;20202;-84
2023/06/26 13:39:25;;;;;;;5.90;5.30;;;29.70;59.20;;;;;;10466000;28;20269;-83
2023/06/26 13:44:27;;;;;;;6.20;5.70;;;29.60;59.60;;;;;;10476592;28;20212;-83
2023/06/26 13:49:29;;;;;;;6.70;5.47;;;29.60;58.70;;;;;;10478477;28;20627;-83
2023/06/26 13:54:33;;;;;;;6.33;5.40;;;29.60;58.80;;;;;;10484818;28;20206;-82
2023/06/26 13:59:37;;;;;;;5.13;4.73;;;29.60;57.60;;;;;;10483107;28;20213;-82
2023/06/26 14:04:39;;;;;;;5.70;5.20;;;29.50;57.40;;;;;;10468333;28;20672;-83
2023/06/26 14:09:43;;;;;;;5.33;4.83;;;29.40;57.80;;;;;;10481027;28;20689;-83
2023/06/26 14:14:45;;;;;;;4.90;4.60;;;29.40;55.70;;;;;;10488552;28;20252;-83
2023/06/26 14:19:47;;;;;;;5.27;4.70;;;29.40;56.20;;;;;;10470112;28;20256;-83
2023/06/26 14:24:51;;;;;;;5.03;4.60;;;29.40;56.10;;;;;;10463507;28;20212;-83
2023/06/26 14:29:53;;;;;;;4.70;4.27;;;29.30;55.80;;;;;;10464453;28;20213;-83
2023/06/26 14:34:55;;;;;;;4.73;4.13;;;29.30;55.00;;;;;;10477801;28;20247;-84
2023/06/26 14:39:59;;;;;;;4.00;3.60;;;29.30;55.30;;;;;;10466150;28;20213;-83
2023/06/26 14:45:01;;;;;;;3.87;3.47;;;29.20;54.80;;;;;;10479307;28;20247;-84
2023/06/26 14:50:04;;;;;;;5.37;3.77;;;29.20;55.20;;;;;;10479451;28;20218;-84
2023/06/26 14:55:09;;;;;;;4.43;3.50;;;29.20;55.20;;;;;;10459675;28;20251;-84
2023/06/26 15:00:12;;;;;;;3.80;3.50;;;29.10;55.30;;;;;;10480742;28;20239;-82
2023/06/26 15:05:14;;;;;;;4.27;3.87;;;29.10;54.60;;;;;;10482393;28;20206;-84
2023/06/26 15:10:18;;;;;;;4.60;4.10;;;29.00;55.30;;;;;;10479879;28;20692;-84
2023/06/26 15:15:20;;;;;;;3.87;3.50;;;29.00;55.50;;;;;;10455560;28;20229;-82
2023/06/26 15:20:22;;;;;;;4.80;4.10;;;29.00;55.70;;;;;;10462234;28;20248;-83
2023/06/26 15:25:28;;;;;;;4.63;4.23;;;28.90;55.60;;;;;;10479421;28;20186;-84
2023/06/26 15:30:30;;;;;;;7.60;4.30;;;28.90;56.20;;;;;;10486383;28;20240;-84
2023/06/26 15:35:32;;;;;;;4.90;4.40;;;28.90;56.20;;;;;;10460166;28;20708;-84
2023/06/26 15:40:35;;;;;;;3.93;3.73;;;28.80;55.90;;;;;;10465824;28;20691;-83
2023/06/26 15:45:37;;;;;;;4.83;4.33;;;28.80;54.50;;;;;;10483040;28;20205;-83
2023/06/26 15:50:39;;;;;;;5.07;4.63;;;28.80;55.10;;;;;;10490154;28;20272;-83
2023/06/26 15:55:43;;;;;;;6.50;5.37;;;28.70;55.50;;;;;;10468107;28;20209;-83
2023/06/26 16:00:45;;;;;;;5.63;5.00;;;28.70;55.40;;;;;;10475342;28;20228;-84
2023/06/26 16:05:47;;;;;;;9.50;6.30;;;28.70;55.20;;;;;;10452770;28;20205;-82
2023/06/26 16:10:51;;;;;;;6.60;6.00;;;28.60;55.50;;;;;;10434163;28;20224;-82
2023/06/26 16:15:53;;;;;;;6.80;6.10;;;28.50;56.30;;;;;;10470115;28;20200;-83
2023/06/26 16:20:55;;;;;;;6.60;5.80;;;28.50;56.00;;;;;;10459751;28;20213;-83
2023/06/26 16:25:59;;;;;;;7.20;6.57;;;28.60;56.30;;;;;;10478327;28;20577;-82
2023/06/26 16:31:01;;;;;;;9.10;6.70;;;28.60;55.50;;;;;;10455413;28;20720;-83
2023/06/26 16:36:03;;;;;;;7.00;6.33;;;28.60;55.10;;;;;;10450980;28;20793;-83
2023/06/26 16:41:07;;;;;;;6.80;6.10;;;28.50;55.10;;;;;;10472915;28;20220;-83
2023/06/26 16:46:09;;;;;;;5.80;5.30;;;28.40;53.60;;;;;;10469568;28;20205;-82
2023/06/26 16:51:56;;;;;;;7.80;5.23;;;28.30;54.40;;;;;;10481858;22;20291;-83
2023/06/26 16:57:52;;;;;;;8.70;5.37;;;28.30;54.10;;;;;;10440177;28;20228;-84
2023/06/26 17:03:44;;;;;;;3.40;3.10;;;28.20;53.90;;;;;;10407764;28;20731;-85
2023/06/26 17:09:32;;;;;;;4.27;3.20;;;28.10;51.50;;;;;;10389866;28;20649;-83
2023/06/26 17:15:03;;;;;;;4.00;3.03;;;27.90;52.30;;;;;;10392174;28;20206;-85
2023/06/26 17:20:19;;;;;;;2.93;2.73;;;27.70;49.90;;;;;;10413099;28;20716;-84
2023/06/26 17:25:37;;;;;;;3.00;2.80;;;27.60;49.80;;;;;;10421271;28;20264;-84
2023/06/26 18:01:28;;;;;;;4.00;2.90;;;27.10;47.70;;;;;;10306031;28;20687;-84
2023/06/26 18:46:58;;;;;;;;;;;;;;;;;;;;;
2023/06/26 19:12:14;;;;;;;2.37;2.27;;;25.70;51.00;;;;;;10362960;28;20289;-86
2023/06/26 19:18:43;;;;;;;2.80;2.13;;;25.60;50.60;;;;;;10463199;28;20209;-84
2023/06/26 19:37:32;;;;;;;2.00;1.90;;;25.20;50.90;;;;;;10240517;29;20201;-83
2023/06/26 19:55:22;;;;;;;3.70;2.50;;;25.00;51.20;;;;;;10488664;28;20212;-85
2023/06/26 20:20:54;;;;;;;5.90;2.40;;;24.70;52.20;;;;;;10002622;29;20286;-83
2023/06/26 20:40:08;;;;;;;3.20;2.50;;;24.60;52.20;;;;;;10254012;28;20228;-85
2023/06/26 20:53:57;;;;;;;2.87;2.67;;;24.40;52.80;;;;;;10244040;28;20258;-83
2023/06/26 21:54:22;;;;;;;3.33;2.33;;;24.00;56.30;;;;;;10438858;28;20182;-82
2023/06/26 22:51:48;;;;;;;2.93;2.53;;;23.70;56.70;;;;;;10682659;22;20831;-82
2023/06/26 22:56:50;;;;;;;3.23;2.50;;;23.60;56.80;;;;;;10456304;28;20198;-82
2023/06/26 23:01:52;;;;;;;5.00;2.13;;;23.60;56.40;;;;;;10447952;28;20238;-82
2023/06/26 23:06:56;;;;;;;3.73;2.30;;;23.60;57.20;;;;;;10452044;28;20552;-82
2023/06/26 23:11:58;;;;;;;2.50;2.37;;;23.50;57.70;;;;;;10433681;28;20302;-82
2023/06/26 23:17:04;;;;;;;4.17;2.80;;;23.50;57.80;;;;;;10460283;28;20202;-80
2023/06/26 23:22:09;;;;;;;5.73;2.67;;;23.50;56.70;;;;;;10467781;28;20225;-83
2023/06/26 23:27:11;;;;;;;2.23;2.13;;;23.50;56.60;;;;;;10495849;28;20617;-82
2023/06/26 23:32:13;;;;;;;4.90;2.50;;;23.50;57.80;;;;;;10476484;28;20267;-83
2023/06/26 23:37:24;;;;;;;6.40;2.37;;;23.50;57.90;;;;;;10476726;28;20194;-82
2023/06/26 23:42:27;;;;;;;2.17;2.00;;;23.40;57.40;;;;;;10476873;28;20225;-82
2023/06/26 23:47:29;;;;;;;2.57;2.37;;;23.40;58.30;;;;;;10473617;28;20598;-82
2023/06/26 23:52:34;;;;;;;4.30;2.17;;;23.30;57.40;;;;;;10477759;28;20603;-82
2023/06/26 23:57:36;;;;;;;2.53;2.17;;;23.30;58.00;;;;;;10479244;28;20205;-83
